Time;durP1;ratioP1;P1;durP2;ratioP2;P2;SDS_P1;SDS_P2;PMS_P1;PMS_P2;Temp;Humidity;BMP_temperature;BMP_pressure;BME280_temperature;BME280_humidity;BME280_pressure;Samples;Min_cycle;Max_cycle;Signal;HPM_P1;HPM_P2
2022/05/02 00:04:46;;;;;;;13.45;8.65;;;;;;;7.54;75.88;97785.69;10294350;28;20049;-58
2022/05/02 00:09:45;;;;;;;11.93;8.35;;;;;;;7.60;77.37;97801.25;10309940;28;20041;-58
2022/05/02 00:14:44;;;;;;;12.27;8.52;;;;;;;7.46;78.16;97805.41;10334555;28;20075;-57
2022/05/02 00:19:43;;;;;;;11.57;7.32;;;;;;;7.27;78.31;97804.28;10310777;28;20099;-58
2022/05/02 00:24:42;;;;;;;11.55;7.97;;;;;;;7.11;78.72;97810.94;10293729;28;20407;-58
2022/05/02 00:29:41;;;;;;;13.77;8.52;;;;;;;6.94;78.84;97815.00;10293780;28;20133;-58
2022/05/02 00:34:40;;;;;;;12.98;8.70;;;;;;;6.81;78.93;97809.66;10293461;28;20077;-58
2022/05/02 00:39:39;;;;;;;11.05;7.78;;;;;;;6.76;78.62;97808.72;10293623;28;20117;-58
2022/05/02 00:44:45;;;;;;;14.40;9.27;;;;;;;6.73;78.85;97812.97;10293077;28;20141;-58
2022/05/02 00:49:43;;;;;;;15.18;9.27;;;;;;;6.67;78.76;97799.97;10292088;28;20560;-58
2022/05/02 00:54:44;;;;;;;12.52;9.00;;;;;;;6.64;79.20;97795.66;10293367;28;20604;-60
2022/05/02 00:59:43;;;;;;;13.70;9.40;;;;;;;6.57;79.73;97797.25;10292461;28;20069;-57
2022/05/02 01:04:43;;;;;;;14.27;9.68;;;;;;;6.55;79.75;97798.94;10292104;28;20065;-58
2022/05/02 01:09:44;;;;;;;13.73;9.98;;;;;;;6.51;80.29;97791.13;10292265;28;20457;-58
2022/05/02 01:14:47;;;;;;;12.85;9.20;;;;;;;6.41;81.33;97774.66;10292295;28;20072;-58
2022/05/02 01:19:47;;;;;;;14.07;9.13;;;;;;;6.37;81.07;97781.50;10291905;28;20073;-57
2022/05/02 01:24:48;;;;;;;13.40;9.05;;;;;;;6.32;80.89;97770.22;10291891;28;20496;-58
2022/05/02 01:29:47;;;;;;;12.13;8.90;;;;;;;6.28;81.27;97765.88;10307417;28;20085;-58
2022/05/02 01:34:46;;;;;;;13.63;9.13;;;;;;;6.20;82.35;97764.88;10292228;28;20030;-57
2022/05/02 01:39:45;;;;;;;17.77;9.88;;;;;;;6.22;82.05;97762.34;10291569;28;20045;-58
2022/05/02 01:44:43;;;;;;;15.18;10.25;;;;;;;6.16;82.45;97757.94;10291973;28;20116;-57
2022/05/02 01:49:42;;;;;;;14.40;8.88;;;;;;;6.13;82.31;97750.16;10291290;28;20048;-58
2022/05/02 01:54:42;;;;;;;16.38;9.93;;;;;;;6.10;82.55;97748.41;10291039;28;20115;-58
2022/05/02 01:59:40;;;;;;;12.13;8.50;;;;;;;6.12;82.17;97751.03;10292046;28;20069;-58
2022/05/02 02:10:14;;;;;;;14.30;8.75;;;;;;;5.97;82.91;97742.16;10291786;28;20235;-58
2022/05/02 02:15:14;;;;;;;14.38;8.95;;;;;;;5.90;83.24;97734.31;10339651;28;20068;-58
2022/05/02 02:20:13;;;;;;;14.98;9.82;;;;;;;5.83;83.32;97730.75;10311699;28;20073;-58
2022/05/02 02:25:12;;;;;;;16.52;11.40;;;;;;;5.76;84.12;97741.81;10298534;28;20061;-58
2022/05/02 02:30:11;;;;;;;18.63;12.70;;;;;;;5.62;84.44;97753.56;10298536;28;20057;-58
2022/05/02 02:35:10;;;;;;;;;;;;;;;5.64;84.57;97745.03;10299257;28;20513;-58
2022/05/02 02:40:10;;;;;;;20.42;14.05;;;;;;;5.61;84.57;97741.53;10298362;28;20360;-58
2022/05/02 02:45:09;;;;;;;22.55;13.93;;;;;;;5.49;84.97;97740.47;10298213;28;20472;-58
2022/05/02 02:50:08;;;;;;;21.05;13.75;;;;;;;5.51;84.78;97728.50;10297216;28;20084;-58
2022/05/02 02:55:08;;;;;;;19.08;12.50;;;;;;;5.53;84.70;97728.50;10297068;28;20084;-58
2022/05/02 03:00:07;;;;;;;;;;;;;;;5.52;84.59;97726.78;10297702;28;20065;-58
2022/05/02 03:10:25;;;;;;;20.80;12.40;;;;;;;5.52;84.26;97719.94;10296748;28;20073;-58
2022/05/02 03:15:24;;;;;;;18.02;12.60;;;;;;;5.54;84.69;97728.56;10296562;28;20071;-58
2022/05/02 03:20:23;;;;;;;20.67;13.18;;;;;;;5.49;85.29;97727.59;10296622;28;20033;-58
2022/05/02 03:25:22;;;;;;;24.92;14.45;;;;;;;5.36;85.57;97717.06;10300745;28;20109;-58
2022/05/02 03:30:22;;;;;;;20.58;13.45;;;;;;;5.31;85.88;97727.25;10299045;28;20064;-58
2022/05/02 03:35:20;;;;;;;;;;;;;;;5.30;86.14;97717.81;10299928;28;20034;-58
2022/05/02 03:40:20;;;;;;;23.17;14.20;;;;;;;5.30;86.05;97720.38;10298456;28;19940;-58
2022/05/02 03:45:19;;;;;;;27.42;16.33;;;;;;;5.19;87.06;97721.88;10299346;28;20500;-58
2022/05/02 03:50:18;;;;;;;24.05;14.25;;;;;;;5.22;86.70;97721.94;10298867;28;20084;-58
2022/05/02 03:55:17;;;;;;;21.20;13.02;;;;;;;5.35;86.40;97729.06;10298151;28;20493;-57
2022/05/02 04:00:16;;;;;;;20.05;11.68;;;;;;;5.42;85.69;97707.75;10298177;28;20513;-58
2022/05/02 04:05:15;;;;;;;18.02;11.43;;;;;;;5.55;85.43;97722.59;10298069;28;20080;-58
2022/05/02 04:10:14;;;;;;;19.38;12.45;;;;;;;5.66;85.81;97722.75;10316860;28;20033;-58
2022/05/02 04:15:14;;;;;;;23.02;13.27;;;;;;;5.57;86.22;97706.28;10339012;28;20108;-57
2022/05/02 04:20:13;;;;;;;20.88;12.80;;;;;;;5.66;86.28;97693.56;10310150;28;20057;-58
2022/05/02 04:25:12;;;;;;;21.02;14.23;;;;;;;5.89;86.17;97718.00;10324713;28;20038;-58
2022/05/02 04:30:12;;;;;;;21.10;13.90;;;;;;;6.10;86.50;97721.78;10293574;28;20128;-58
2022/05/02 04:35:11;;;;;;;20.33;13.55;;;;;;;6.21;86.78;97720.25;10293933;28;20066;-59
2022/05/02 04:40:10;;;;;;;19.60;12.68;;;;;;;6.47;86.20;97728.38;10293579;28;20033;-58
2022/05/02 04:45:09;;;;;;;18.25;12.23;;;;;;;6.59;85.66;97696.75;10283956;28;20649;-58
2022/05/02 04:50:08;;;;;;;;;;;;;;;7.00;84.87;97720.47;10285300;28;20068;-57
2022/05/02 04:55:08;;;;;;;18.73;12.90;;;;;;;7.22;84.76;97721.63;10284533;28;19913;-57
2022/05/02 05:00:07;;;;;;;16.10;11.88;;;;;;;7.45;83.74;97715.88;10274359;28;20069;-58
2022/05/02 05:05:07;;;;;;;;;;;;;;;7.68;83.29;97718.69;10277718;28;20058;-58
2022/05/02 05:10:09;;;;;;;23.95;13.02;;;;;;;7.93;83.00;97722.38;10291658;28;20372;-58
2022/05/02 05:21:08;;;;;;;18.75;13.77;;;;;;;7.96;82.43;97718.94;10292211;28;20469;-58
2022/05/02 05:26:16;;;;;;;22.55;12.38;;;;;;;8.05;82.10;97722.47;10291901;28;20076;-58
2022/05/02 05:31:29;;;;;;;19.05;11.93;;;;;;;8.19;82.18;97719.16;10289707;28;20069;-58
2022/05/02 05:36:59;;;;;;;16.70;11.00;;;;;;;8.28;81.55;97714.03;10294977;28;20069;-58
2022/05/02 05:41:58;;;;;;;14.43;9.98;;;;;;;8.46;81.51;97719.34;10298863;28;20061;-58
2022/05/02 05:47:02;;;;;;;11.43;8.23;;;;;;;8.58;80.11;97707.38;10300015;28;20065;-58
2022/05/02 05:52:23;;;;;;;13.07;9.60;;;;;;;8.83;79.68;97714.41;10299467;28;20070;-58
2022/05/02 05:57:33;;;;;;;13.18;8.95;;;;;;;9.08;78.77;97709.34;10299633;28;20065;-58
2022/05/02 06:02:49;;;;;;;14.18;9.93;;;;;;;9.15;76.79;97687.78;10298968;28;20072;-58
2022/05/02 06:07:51;;;;;;;15.10;10.55;;;;;;;9.48;75.42;97704.31;10298764;28;20446;-58
2022/05/02 06:12:52;;;;;;;12.48;7.82;;;;;;;9.80;75.47;97700.94;10259333;28;20471;-58
2022/05/02 06:23:13;;;;;;;;;;;;;;;10.35;72.85;97690.53;10298471;28;20069;-59
2022/05/02 06:28:14;;;;;;;13.13;11.55;;;;;;;10.54;72.61;97676.69;10297704;28;19944;-59
2022/05/02 06:33:14;;;;;;;28.23;25.52;;;;;;;10.79;72.30;97676.63;10295647;28;20525;-59
2022/05/02 06:38:18;;;;;;;;;;;;;;;11.09;71.59;97686.06;10295992;28;20065;-59
2022/05/02 06:43:32;;;;;;;13.00;8.18;;;;;;;11.38;70.85;97678.13;10296814;28;19964;-59
2022/05/02 06:48:35;;;;;;;10.45;6.82;;;;;;;11.46;70.01;97665.97;10296711;28;20061;-59
2022/05/02 06:53:59;;;;;;;11.35;6.57;;;;;;;11.63;68.00;97658.03;10297435;28;20539;-58
2022/05/02 06:59:17;;;;;;;10.68;7.18;;;;;;;11.92;66.83;97659.56;10296765;28;20457;-60
2022/05/02 07:04:34;;;;;;;10.57;7.15;;;;;;;12.14;66.47;97647.25;10297472;28;20057;-59
2022/05/02 07:09:45;;;;;;;10.45;6.32;;;;;;;12.40;65.95;97644.44;10296219;28;20057;-59
2022/05/02 07:14:56;;;;;;;8.38;6.40;;;;;;;12.67;65.54;97645.00;10295828;28;20053;-58
2022/05/02 07:20:06;;;;;;;9.70;5.40;;;;;;;12.92;64.90;97635.19;10290157;28;20166;-59
2022/05/02 07:25:08;;;;;;;6.43;4.70;;;;;;;13.05;62.42;97639.38;10296172;28;20528;-59
2022/05/02 07:30:08;;;;;;;8.55;5.93;;;;;;;13.26;61.44;97629.56;10295257;28;20092;-59
2022/05/02 07:35:08;;;;;;;7.40;5.00;;;;;;;13.55;59.85;97622.19;10295699;28;20068;-59
2022/05/02 07:40:11;;;;;;;6.15;4.65;;;;;;;13.83;56.78;97618.28;10290898;28;20076;-59
2022/05/02 07:45:13;;;;;;;4.90;3.92;;;;;;;13.81;54.33;97601.81;10291670;28;20487;-59
2022/05/02 07:50:12;;;;;;;5.28;3.88;;;;;;;14.05;53.17;97595.31;10291340;28;20061;-59
2022/05/02 07:55:13;;;;;;;;;;;;;;;14.17;54.01;97593.34;10295244;28;20057;-58
2022/05/02 08:00:13;;;;;;;5.65;3.85;;;;;;;14.48;53.22;97589.31;10293469;28;19956;-59
2022/05/02 08:05:12;;;;;;;6.18;4.07;;;;;;;14.71;53.56;97581.03;10294400;28;20105;-59
2022/05/02 08:10:48;;;;;;;9.85;3.78;;;;;;;15.04;52.85;97574.25;10308360;28;20065;-59
2022/05/02 08:15:54;;;;;;;5.72;3.60;;;;;;;15.13;50.86;97579.28;10294519;28;20069;-59
2022/05/02 08:20:56;;;;;;;7.97;4.63;;;;;;;15.14;51.79;97580.16;10294572;28;20066;-59
2022/05/02 08:31:39;;;;;;;5.32;3.92;;;;;;;16.28;50.66;97580.91;10257192;28;20525;-58
2022/05/02 08:37:17;;;;;;;5.57;3.58;;;;;;;16.92;49.15;97589.59;10256157;28;20077;-58
2022/05/02 08:42:34;;;;;;;5.30;3.60;;;;;;;17.33;47.42;97582.28;10273149;28;20089;-58
2022/05/02 08:48:11;;;;;;;4.38;3.65;;;;;;;17.75;46.48;97584.44;10256324;28;20076;-59
2022/05/02 08:53:22;;;;;;;5.60;3.83;;;;;;;18.21;44.77;97571.56;10273244;28;20073;-58
2022/05/02 08:58:42;;;;;;;7.13;3.80;;;;;;;18.57;44.29;97577.28;10292752;28;20069;-58
2022/05/02 09:04:13;;;;;;;5.47;3.67;;;;;;;18.93;43.73;97576.88;10295315;28;20112;-59
2022/05/02 09:09:46;;;;;;;4.32;3.38;;;;;;;19.41;42.27;97581.16;10311193;28;20470;-59
2022/05/02 09:15:19;;;;;;;6.13;3.58;;;;;;;19.64;40.30;97574.16;10336097;28;20065;-58
2022/05/02 09:20:23;;;;;;;5.50;3.85;;;;;;;19.84;39.45;97563.69;10307926;28;20069;-58
2022/05/02 09:25:54;;;;;;;4.85;3.40;;;;;;;20.13;39.59;97551.06;10292403;28;20069;-58
2022/05/02 09:31:21;;;;;;;5.88;2.80;;;;;;;20.37;37.03;97538.59;10291900;28;20491;-58
2022/05/02 09:36:35;;;;;;;5.25;3.03;;;;;;;20.61;36.85;97533.19;10291896;28;20129;-58
2022/05/02 09:41:55;;;;;;;6.25;3.63;;;;;;;20.71;36.24;97518.66;10291872;28;20077;-59
2022/05/02 09:52:59;;;;;;;3.40;2.63;;;;;;;19.95;36.24;97505.28;10291807;28;20133;-58
2022/05/02 09:58:26;;;;;;;3.35;2.60;;;;;;;19.99;36.05;97503.38;10291083;28;20505;-58
2022/05/02 10:03:33;;;;;;;4.57;3.53;;;;;;;20.34;37.70;97503.63;10291843;28;20482;-58
2022/05/02 10:08:43;;;;;;;5.20;3.45;;;;;;;20.47;37.06;97502.19;10291368;28;20403;-58
2022/05/02 10:14:20;;;;;;;4.85;2.80;;;;;;;20.56;36.61;97501.75;10291060;28;20058;-58
2022/05/02 10:19:24;;;;;;;9.18;3.83;;;;;;;20.66;35.93;97497.78;10290763;28;20061;-58
2022/05/02 10:24:44;;;;;;;3.35;2.90;;;;;;;20.73;35.48;97489.56;10295719;28;20061;-58
2022/05/02 10:30:06;;;;;;;5.15;4.00;;;;;;;21.04;36.91;97476.66;10300987;28;20078;-59
2022/05/02 10:35:11;;;;;;;3.97;3.30;;;;;;;21.23;36.27;97471.38;10297881;28;20104;-58
2022/05/02 10:40:14;;;;;;;4.63;3.30;;;;;;;21.17;36.12;97460.25;10298504;28;20069;-59
2022/05/02 10:45:14;;;;;;;4.32;3.20;;;;;;;21.20;36.37;97454.84;10297655;28;20521;-58
2022/05/02 10:50:19;;;;;;;5.40;2.95;;;;;;;21.02;35.22;97446.88;10297251;28;20077;-57
2022/05/02 10:55:24;;;;;;;3.58;2.90;;;;;;;21.04;35.67;97439.72;10297188;28;20053;-57
2022/05/02 11:00:23;;;;;;;4.00;3.22;;;;;;;20.98;36.21;97458.47;10297862;28;20069;-57
2022/05/02 11:05:43;;;;;;;6.78;2.90;;;;;;;20.75;35.69;97453.44;10297423;28;20081;-58
2022/05/02 11:10:52;;;;;;;6.22;3.72;;;;;;;20.58;35.85;97454.22;10296137;28;20147;-58
2022/05/02 11:16:19;;;;;;;5.05;3.15;;;;;;;20.25;36.13;97449.53;10296996;28;20082;-58
2022/05/02 11:21:41;;;;;;;3.92;3.10;;;;;;;19.98;36.77;97451.63;10297221;28;20510;-58
2022/05/02 11:26:49;;;;;;;4.40;3.60;;;;;;;19.48;37.11;97441.44;10308209;28;20157;-58
2022/05/02 11:32:09;;;;;;;4.38;3.47;;;;;;;19.30;38.22;97461.47;10298924;28;20084;-57
2022/05/02 11:37:19;;;;;;;10.25;3.80;;;;;;;19.25;38.45;97466.91;10299248;28;20512;-58
2022/05/02 11:42:21;;;;;;;4.40;3.10;;;;;;;19.28;38.66;97460.69;10298704;28;20072;-58
2022/05/02 11:48:06;;;;;;;5.80;3.53;;;;;;;19.32;37.53;97467.53;10298900;28;20073;-57
2022/05/02 11:53:09;;;;;;;4.30;3.05;;;;;;;19.52;37.93;97445.66;10308416;28;20073;-57
2022/05/02 11:58:34;;;;;;;4.95;3.25;;;;;;;19.65;37.41;97455.66;10298002;28;20081;-57
2022/05/02 12:04:03;;;;;;;4.25;3.40;;;;;;;20.03;36.96;97449.66;10298875;28;20116;-57
2022/05/02 12:09:07;;;;;;;4.10;3.15;;;;;;;20.36;36.18;97438.53;10308622;28;20494;-57
2022/05/02 12:14:19;;;;;;;5.80;3.30;;;;;;;20.59;35.79;97433.09;10339184;28;20064;-57
2022/05/02 12:19:30;;;;;;;4.95;3.28;;;;;;;20.47;35.20;97417.84;10319918;28;20382;-57
2022/05/02 12:24:36;;;;;;;6.05;3.55;;;;;;;20.27;35.17;97438.00;10294615;28;20081;-57
2022/05/02 12:29:36;;;;;;;8.05;3.60;;;;;;;20.04;35.14;97431.13;10295019;28;20472;-57
2022/05/02 12:34:37;;;;;;;6.05;3.03;;;;;;;19.79;35.62;97419.94;10293734;28;20084;-57
2022/05/02 12:39:47;;;;;;;5.45;2.90;;;;;;;19.69;35.14;97416.88;10293694;28;20069;-57
2022/05/02 12:45:06;;;;;;;6.75;4.57;;;;;;;19.42;34.67;97417.09;10292949;28;20528;-57
2022/05/02 12:50:18;;;;;;;8.02;4.10;;;;;;;19.13;35.70;97409.56;10294340;28;20484;-57
2022/05/02 12:55:19;;;;;;;6.20;3.58;;;;;;;19.00;36.16;97414.47;10292881;28;20069;-57
2022/05/02 13:00:31;;;;;;;5.60;3.25;;;;;;;18.83;36.75;97407.25;10294338;28;20076;-58
2022/05/02 13:05:32;;;;;;;4.72;2.97;;;;;;;18.68;37.08;97416.59;10292988;28;20096;-57
2022/05/02 13:10:31;;;;;;;4.32;3.45;;;;;;;18.54;37.03;97405.72;10314599;28;20084;-57
2022/05/02 13:15:36;;;;;;;6.00;3.50;;;;;;;18.49;37.08;97391.91;10332480;28;20087;-57
2022/05/02 13:20:36;;;;;;;5.35;3.58;;;;;;;18.33;37.99;97386.38;10304118;28;20069;-57
2022/05/02 13:26:02;;;;;;;7.10;3.80;;;;;;;18.29;37.93;97400.53;10292699;28;20066;-57
2022/05/02 13:31:27;;;;;;;5.10;3.20;;;;;;;18.12;37.49;97393.28;10291918;28;20085;-57
2022/05/02 13:36:38;;;;;;;5.22;3.60;;;;;;;18.03;37.98;97388.38;10293170;28;20073;-57
2022/05/02 13:41:40;;;;;;;7.40;4.05;;;;;;;18.01;38.70;97395.47;10292206;28;20085;-58
2022/05/02 13:47:01;;;;;;;5.97;3.40;;;;;;;17.83;38.68;97392.59;10291430;28;20082;-59
2022/05/02 13:52:18;;;;;;;7.55;3.58;;;;;;;17.74;38.61;97393.75;10291881;28;20065;-59
2022/05/02 13:57:38;;;;;;;8.23;3.88;;;;;;;17.56;38.18;97378.66;10294865;28;20085;-59
2022/05/02 14:03:04;;;;;;;7.25;3.13;;;;;;;17.40;39.08;97373.06;10299638;28;20477;-59
2022/05/02 14:08:07;;;;;;;4.65;3.20;;;;;;;17.27;39.23;97377.88;10297149;28;20065;-59
2022/05/02 14:13:20;;;;;;;5.88;3.45;;;;;;;17.22;39.63;97364.09;10299764;28;20073;-59
2022/05/02 14:18:21;;;;;;;6.53;4.20;;;;;;;17.16;39.63;97368.69;10298393;28;20073;-59
2022/05/02 14:23:20;;;;;;;8.30;5.05;;;;;;;17.02;39.88;97362.13;10301262;28;20061;-59
2022/05/02 14:28:20;;;;;;;;;;;;;;;16.87;40.05;97362.63;10302354;28;20030;-58
2022/05/02 14:33:31;;;;;;;;;;;;;;;16.82;40.35;97356.69;10302494;28;20395;-59
2022/05/02 14:38:31;;;;;;;7.95;4.90;;;;;;;16.77;40.54;97359.44;10301428;28;19952;-57
2022/05/02 14:43:30;;;;;;;9.15;6.38;;;;;;;16.71;40.97;97357.00;10301637;28;20064;-57
2022/05/02 14:48:29;;;;;;;7.05;4.28;;;;;;;16.57;40.72;97348.72;10300916;28;20068;-57
2022/05/02 14:53:36;;;;;;;7.00;4.50;;;;;;;16.42;40.83;97334.31;10300497;28;20057;-57
2022/05/02 14:58:38;;;;;;;7.65;3.95;;;;;;;16.47;41.22;97343.75;10301496;28;20065;-57
2022/05/02 15:03:43;;;;;;;10.80;4.32;;;;;;;16.41;40.74;97346.56;10300603;28;20065;-57
2022/05/02 15:09:16;;;;;;;6.10;4.43;;;;;;;16.42;41.42;97342.19;10299127;28;20060;-58
2022/05/02 15:14:46;;;;;;;8.43;4.80;;;;;;;16.39;41.72;97340.50;10300111;28;20069;-57
2022/05/02 15:20:03;;;;;;;10.90;5.43;;;;;;;16.28;41.37;97334.78;10299949;28;20045;-57
2022/05/02 15:25:08;;;;;;;7.15;4.97;;;;;;;16.17;41.30;97329.00;10295869;28;20473;-57
2022/05/02 15:40:57;;;;;;;5.82;3.40;;;;;;;15.93;41.68;97335.78;10296513;28;20066;-59
2022/05/02 15:45:57;;;;;;;;;;;;;;;15.93;42.30;97327.94;10295566;28;20029;-59
2022/05/02 15:51:14;;;;;;;6.45;4.03;;;;;;;15.92;41.92;97324.47;10310427;28;19955;-59
2022/05/02 15:56:14;;;;;;;5.78;3.83;;;;;;;15.89;42.27;97324.59;10295191;28;20057;-59
2022/05/02 16:01:22;;;;;;;6.55;4.55;;;;;;;15.81;42.23;97326.53;10294662;28;20061;-59
2022/05/02 16:06:22;;;;;;;8.43;4.70;;;;;;;15.78;42.51;97319.63;10294261;28;20509;-59
2022/05/02 16:11:33;;;;;;;8.55;5.00;;;;;;;15.61;42.53;97309.63;10294616;28;20476;-59
2022/05/02 16:16:41;;;;;;;12.27;6.53;;;;;;;15.57;42.70;97308.00;10292317;28;20072;-59
2022/05/02 16:21:41;;;;;;;11.38;7.13;;;;;;;15.55;42.60;97309.81;10293390;28;20076;-59
2022/05/02 16:26:42;;;;;;;8.57;6.32;;;;;;;15.49;43.72;97315.22;10294434;28;20065;-59
2022/05/02 16:31:41;;;;;;;7.47;5.05;;;;;;;15.40;43.34;97325.94;10290631;28;20547;-59
2022/05/02 16:36:41;;;;;;;11.05;5.70;;;;;;;15.30;43.23;97322.72;10289655;28;20062;-59
2022/05/02 16:41:44;;;;;;;9.13;5.68;;;;;;;15.22;43.42;97322.03;10293767;28;20061;-59
2022/05/02 16:46:43;;;;;;;8.98;5.32;;;;;;;15.14;44.13;97335.31;10292631;28;20068;-59
2022/05/02 16:51:43;;;;;;;;;;;;;;;15.04;43.51;97333.84;10294270;28;20068;-59
2022/05/02 16:56:42;;;;;;;9.83;5.70;;;;;;;14.88;43.82;97319.47;10293365;28;19965;-59
2022/05/02 17:01:41;;;;;;;7.95;4.30;;;;;;;14.86;43.57;97329.94;10292879;28;20065;-59
2022/05/02 17:06:41;;;;;;;7.80;3.42;;;;;;;14.72;43.69;97338.09;10292534;28;20026;-59
2022/05/02 17:11:42;;;;;;;4.18;3.25;;;;;;;14.59;43.78;97341.88;10323643;28;20068;-59
2022/05/02 17:16:44;;;;;;;6.28;3.42;;;;;;;14.35;44.05;97327.63;10323796;28;20522;-59
2022/05/02 17:21:45;;;;;;;5.47;3.20;;;;;;;14.39;43.90;97348.41;10333279;28;20073;-58
2022/05/02 17:26:54;;;;;;;5.57;3.38;;;;;;;14.34;43.87;97349.44;10332757;28;20112;-58
2022/05/02 17:31:54;;;;;;;7.72;3.63;;;;;;;14.28;44.23;97353.03;10347214;28;20085;-58
2022/05/02 17:36:56;;;;;;;6.18;4.28;;;;;;;14.16;44.09;97333.28;10332777;28;20405;-58
2022/05/02 17:42:07;;;;;;;7.32;4.10;;;;;;;14.14;44.35;97360.28;10332644;28;20068;-58
2022/05/02 17:47:10;;;;;;;5.40;3.30;;;;;;;14.09;44.38;97367.38;10332964;28;20080;-58
2022/05/02 17:52:10;;;;;;;6.45;3.92;;;;;;;14.00;44.48;97360.59;10331821;28;20061;-58
2022/05/02 17:57:14;;;;;;;8.43;3.65;;;;;;;13.93;44.50;97357.25;10332015;28;20495;-58
2022/05/02 18:02:14;;;;;;;6.40;4.30;;;;;;;13.91;45.11;97364.28;10332844;28;20061;-58
2022/05/02 18:07:16;;;;;;;9.60;5.05;;;;;;;13.86;45.24;97371.28;10331586;28;20069;-58
2022/05/02 18:12:26;;;;;;;9.80;5.32;;;;;;;13.84;45.34;97367.84;10331935;28;20065;-59
2022/05/02 18:17:57;;;;;;;7.80;4.60;;;;;;;13.81;46.23;97377.50;10331473;28;20057;-59
2022/05/02 18:22:59;;;;;;;8.73;4.57;;;;;;;13.76;46.12;97381.06;10332340;28;20495;-58
2022/05/02 18:28:08;;;;;;;7.43;4.78;;;;;;;13.61;46.63;97365.72;10331477;28;20496;-58
2022/05/02 18:33:13;;;;;;;7.00;4.17;;;;;;;13.64;46.81;97375.25;10331185;28;20081;-58
2022/05/02 18:38:14;;;;;;;7.28;4.03;;;;;;;13.66;46.62;97389.13;10331572;28;20500;-58
2022/05/02 18:43:19;;;;;;;6.60;4.32;;;;;;;13.59;46.76;97379.69;10331974;28;20069;-59
2022/05/02 18:53:38;;;;;;;11.63;8.63;;;;;;;13.51;48.40;97393.66;10339425;28;20365;-59
2022/05/02 18:58:42;;;;;;;12.40;7.95;;;;;;;13.36;49.70;97397.41;10338175;28;20552;-59
2022/05/02 19:03:47;;;;;;;12.75;9.38;;;;;;;13.38;50.02;97396.56;10338347;28;20076;-59
2022/05/02 19:08:48;;;;;;;13.55;9.55;;;;;;;13.36;50.39;97407.00;10338003;28;20094;-58
2022/05/02 19:13:50;;;;;;;14.60;9.02;;;;;;;13.36;51.21;97407.00;10337310;28;20057;-58
2022/05/02 19:18:50;;;;;;;11.55;8.32;;;;;;;13.26;52.04;97408.06;10336882;28;20069;-58
2022/05/02 19:23:58;;;;;;;12.25;7.55;;;;;;;13.21;53.09;97409.84;10340972;28;20077;-58
2022/05/02 19:29:01;;;;;;;13.27;9.05;;;;;;;13.18;53.37;97408.16;10339622;28;20085;-59
2022/05/02 19:39:21;;;;;;;22.92;14.82;;;;;;;12.86;54.96;97416.50;10340833;28;20072;-60
2022/05/02 19:44:31;;;;;;;25.58;16.98;;;;;;;12.78;56.11;97428.78;10339244;28;20073;-59
2022/05/02 19:49:37;;;;;;;25.17;16.50;;;;;;;12.73;56.12;97421.91;10339572;28;20076;-58
2022/05/02 19:54:38;;;;;;;29.13;20.33;;;;;;;12.62;57.38;97426.38;10339798;28;20077;-58
2022/05/02 19:59:39;;;;;;;29.50;20.00;;;;;;;12.57;58.02;97423.00;10339211;28;20500;-58
2022/05/02 20:04:40;;;;;;;28.80;18.90;;;;;;;12.44;59.53;97429.28;10338792;28;20069;-59
2022/05/02 20:09:40;;;;;;;20.40;14.65;;;;;;;12.29;59.69;97422.53;10338356;28;20573;-59
2022/05/02 20:14:39;;;;;;;24.88;18.50;;;;;;;12.24;60.14;97427.75;10338396;28;20103;-59
2022/05/02 20:19:38;;;;;;;16.83;12.20;;;;;;;12.24;60.36;97421.69;10339181;28;20056;-59
2022/05/02 20:24:37;;;;;;;18.67;13.40;;;;;;;12.04;61.39;97420.22;10334370;28;20047;-58
2022/05/02 20:29:37;;;;;;;18.80;13.43;;;;;;;11.96;61.73;97421.19;10334669;28;20516;-58
2022/05/02 20:39:55;;;;;;;14.65;10.63;;;;;;;11.89;62.14;97428.19;10334229;28;20068;-58
2022/05/02 20:45:06;;;;;;;15.80;10.55;;;;;;;11.80;62.50;97434.34;10333919;28;20038;-58
2022/05/02 20:50:06;;;;;;;15.93;11.70;;;;;;;11.70;63.14;97424.94;10333789;28;20077;-58
2022/05/02 20:55:06;;;;;;;15.52;10.70;;;;;;;11.78;62.92;97425.72;10333574;28;20072;-59
2022/05/02 21:00:07;;;;;;;13.65;9.45;;;;;;;11.77;63.60;97430.94;10333556;28;20847;-58
2022/05/02 21:05:12;;;;;;;19.90;12.90;;;;;;;11.71;64.03;97430.97;10333008;28;20520;-58
2022/05/02 21:10:13;;;;;;;19.58;11.18;;;;;;;11.60;64.82;97437.16;10333654;28;20077;-58
2022/05/02 21:15:29;;;;;;;17.65;12.48;;;;;;;11.51;65.38;97434.66;10334126;28;20068;-58
2022/05/02 21:20:46;;;;;;;16.70;11.90;;;;;;;11.53;65.78;97439.84;10333371;28;20077;-58
2022/05/02 21:25:53;;;;;;;14.63;10.13;;;;;;;11.55;65.24;97431.16;10332756;28;20104;-58
2022/05/02 21:31:21;;;;;;;15.65;10.52;;;;;;;11.63;65.33;97439.72;10332465;28;20095;-58
2022/05/02 21:36:22;;;;;;;18.27;11.07;;;;;;;11.61;64.93;97445.81;10332863;28;20612;-58
2022/05/02 21:41:22;;;;;;;13.45;10.68;;;;;;;11.55;65.05;97427.69;10332389;28;20060;-58
2022/05/02 21:46:21;;;;;;;14.52;10.02;;;;;;;11.65;65.65;97440.56;10331894;28;20497;-58
2022/05/02 21:51:20;;;;;;;16.15;11.20;;;;;;;11.62;65.66;97442.34;10332726;28;20500;-58
2022/05/02 21:56:19;;;;;;;16.02;10.88;;;;;;;11.59;66.02;97434.56;10332082;28;20480;-58
2022/05/02 22:01:17;;;;;;;10.15;6.63;;;;;;;11.60;65.07;97431.97;10332260;28;20484;-58
2022/05/02 22:06:16;;;;;;;7.15;4.88;;;;;;;11.68;63.47;97427.53;10332562;28;20113;-58
2022/05/02 22:11:18;;;;;;;7.00;3.92;;;;;;;11.79;62.36;97427.44;10332343;28;20156;-58
2022/05/02 22:16:17;;;;;;;6.55;4.43;;;;;;;11.86;60.36;97425.63;10330927;28;20511;-58
2022/05/02 22:21:16;;;;;;;6.90;4.57;;;;;;;11.96;59.45;97427.22;10336103;28;20401;-58
2022/05/02 22:26:15;;;;;;;7.25;4.47;;;;;;;12.07;59.14;97433.16;10339335;28;20042;-58
2022/05/02 22:31:14;;;;;;;6.47;4.13;;;;;;;12.06;59.13;97414.97;10339171;28;20092;-58
2022/05/02 22:36:17;;;;;;;5.25;4.13;;;;;;;12.15;58.67;97422.66;10342414;28;20033;-58
2022/05/02 22:41:16;;;;;;;8.77;4.57;;;;;;;12.18;59.10;97432.16;10342211;28;20507;-58
2022/05/02 22:46:15;;;;;;;6.50;4.40;;;;;;;12.17;59.15;97425.25;10341767;28;20550;-58
2022/05/02 22:51:14;;;;;;;5.78;4.40;;;;;;;12.15;59.01;97433.06;10342185;28;20034;-58
2022/05/02 22:56:15;;;;;;;8.15;4.10;;;;;;;12.07;58.95;97419.31;10341415;28;20104;-58
2022/05/02 23:01:26;;;;;;;7.75;5.13;;;;;;;12.20;57.85;97428.66;10341763;28;20073;-58
2022/05/02 23:06:40;;;;;;;6.35;4.45;;;;;;;12.22;57.60;97408.69;10342737;28;20092;-58
2022/05/02 23:11:40;;;;;;;6.13;4.40;;;;;;;12.22;57.44;97423.44;10340705;28;20501;-58
2022/05/02 23:16:40;;;;;;;6.80;4.60;;;;;;;12.25;57.07;97419.09;10340881;28;20060;-58
2022/05/02 23:21:40;;;;;;;6.82;4.28;;;;;;;12.16;56.35;97408.78;10339506;28;20061;-58
2022/05/02 23:26:39;;;;;;;6.45;4.30;;;;;;;12.13;56.09;97410.56;10337120;28;20068;-57
2022/05/02 23:31:49;;;;;;;6.53;4.28;;;;;;;12.07;56.13;97406.31;10335992;28;20096;-58
2022/05/02 23:36:53;;;;;;;;;;;;;;;12.04;55.86;97407.22;10336850;28;20092;-58
2022/05/02 23:41:59;;;;;;;5.65;4.05;;;;;;;12.05;55.83;97406.31;10336699;28;19955;-58
2022/05/02 23:47:15;;;;;;;6.13;4.65;;;;;;;12.07;55.92;97401.97;10335949;28;20080;-58
2022/05/02 23:52:44;;;;;;;7.63;5.05;;;;;;;12.04;56.87;97408.94;10335969;28;20068;-58
2022/05/02 23:57:58;;;;;;;6.70;5.25;;;;;;;11.95;57.14;97396.06;10336434;28;20073;-58
